Time;durP1;ratioP1;P1;durP2;ratioP2;P2;SDS_P1;SDS_P2;PMS_P1;PMS_P2;Temp;Humidity;BMP_temperature;BMP_pressure;BME280_temperature;BME280_humidity;BME280_pressure;Samples;Min_cycle;Max_cycle;Signal;HPM_P1;HPM_P2
2023/12/22 00:02:15;;;;;;;7.90;2.20;;;;;;;3.66;100.00;97468.71;105108;1256;69158;-57
2023/12/22 00:04:43;;;;;;;10.60;3.00;;;;;;;3.65;100.00;97471.85;105232;1260;69202;-58
2023/12/22 00:07:11;;;;;;;11.30;2.30;;;;;;;3.67;100.00;97474.20;105119;1257;74783;-58
2023/12/22 00:09:39;;;;;;;10.80;2.50;;;;;;;3.67;100.00;97466.23;105126;1260;81845;-58
2023/12/22 00:12:08;;;;;;;12.30;2.00;;;;;;;3.68;100.00;97468.59;105111;1260;73896;-58
2023/12/22 00:14:37;;;;;;;11.50;1.90;;;;;;;3.73;100.00;97471.95;105179;1262;69125;-59
2023/12/22 00:17:05;;;;;;;10.90;1.90;;;;;;;3.73;100.00;97470.37;105172;1260;69279;-58
2023/12/22 00:19:33;;;;;;;14.10;2.40;;;;;;;3.72;100.00;97470.77;105148;1260;72369;-58
2023/12/22 00:22:03;;;;;;;8.80;1.70;;;;;;;3.71;100.00;97475.65;105124;1260;81501;-57
2023/12/22 00:24:32;;;;;;;11.70;2.20;;;;;;;3.72;100.00;97477.16;105146;1256;71915;-58
2023/12/22 00:27:00;;;;;;;10.30;2.70;;;;;;;3.71;100.00;97475.48;105180;1257;69047;-58
2023/12/22 00:29:29;;;;;;;12.00;2.20;;;;;;;3.74;100.00;97483.97;105170;1256;69201;-57
2023/12/22 00:31:57;;;;;;;11.70;2.10;;;;;;;3.76;100.00;97482.66;105208;1256;73598;-58
2023/12/22 00:34:25;;;;;;;11.00;1.90;;;;;;;3.84;100.00;97493.06;105152;1262;82552;-58
2023/12/22 00:36:54;;;;;;;14.00;2.40;;;;;;;3.98;100.00;97500.88;105099;1256;71733;-58
2023/12/22 00:39:22;;;;;;;8.80;1.80;;;;;;;4.15;100.00;97490.08;105131;1260;69158;-58
2023/12/22 00:41:50;;;;;;;9.90;2.10;;;;;;;4.25;100.00;97487.10;105190;1261;69180;-57
2023/12/22 00:44:18;;;;;;;6.50;1.70;;;;;;;4.30;100.00;97485.24;105151;1256;72372;-57
2023/12/22 00:46:47;;;;;;;10.50;2.40;;;;;;;4.33;100.00;97489.10;105158;1261;82825;-57
2023/12/22 00:49:15;;;;;;;9.80;1.90;;;;;;;4.33;100.00;97500.63;105148;1257;72297;-57
2023/12/22 00:51:43;;;;;;;8.70;2.20;;;;;;;4.35;100.00;97513.48;105220;1260;69125;-57
2023/12/22 00:54:11;;;;;;;5.80;1.60;;;;;;;4.39;100.00;97498.95;105204;1262;69148;-57
2023/12/22 00:56:40;;;;;;;8.60;1.50;;;;;;;4.38;100.00;97498.45;105197;1256;74961;-58
2023/12/22 00:59:08;;;;;;;11.30;1.80;;;;;;;4.37;100.00;97503.52;105203;1262;81434;-57
2023/12/22 01:01:39;;;;;;;9.80;2.00;;;;;;;4.36;99.75;97498.55;105115;1256;73453;-58
2023/12/22 01:04:08;;;;;;;12.20;2.10;;;;;;;4.39;98.42;97525.90;105133;1257;69238;-57
2023/12/22 01:06:39;;;;;;;10.90;2.50;;;;;;;4.41;98.23;97517.67;105229;1260;69201;-58
2023/12/22 01:09:08;;;;;;;8.40;1.50;;;;;;;4.39;96.86;97527.29;105173;1257;73844;-58
2023/12/22 01:11:36;;;;;;;10.70;2.20;;;;;;;4.37;96.22;97527.55;105152;1261;81809;-58
2023/12/22 01:14:04;;;;;;;10.20;1.90;;;;;;;4.37;95.75;97530.69;105187;1262;70952;-58
2023/12/22 01:16:33;;;;;;;12.20;2.80;;;;;;;4.33;96.54;97528.30;105218;1262;69145;-57
2023/12/22 01:19:01;;;;;;;11.20;2.20;;;;;;;4.28;94.99;97536.36;105293;1261;69126;-58
2023/12/22 01:21:29;;;;;;;10.80;1.70;;;;;;;4.32;94.33;97553.61;105261;1256;73641;-58
2023/12/22 01:23:58;;;;;;;11.30;2.20;;;;;;;4.33;94.51;97538.14;105127;1256;82717;-57
2023/12/22 01:26:27;;;;;;;9.70;2.00;;;;;;;4.35;94.35;97543.40;105165;1261;71862;-57
2023/12/22 01:28:55;;;;;;;9.50;2.20;;;;;;;4.36;94.33;97542.15;105228;1257;69075;-57
2023/12/22 01:31:24;;;;;;;9.00;2.00;;;;;;;4.35;93.89;97541.51;105132;1260;69180;-57
2023/12/22 01:33:52;;;;;;;8.40;2.00;;;;;;;4.34;93.83;97536.02;105190;1257;73912;-57
2023/12/22 01:36:21;;;;;;;9.50;1.90;;;;;;;4.34;93.11;97532.06;105126;1262;81801;-57
2023/12/22 01:38:49;;;;;;;8.30;2.00;;;;;;;4.34;93.54;97544.67;105164;1257;71574;-57
2023/12/22 01:41:17;;;;;;;12.80;2.20;;;;;;;4.31;93.38;97536.73;105117;1257;69177;-57
2023/12/22 01:43:45;;;;;;;11.00;2.50;;;;;;;4.29;93.50;97533.18;105159;1260;69170;-57
2023/12/22 01:46:14;;;;;;;7.00;2.30;;;;;;;4.28;93.52;97542.25;105129;1256;73610;-57
2023/12/22 01:48:42;;;;;;;11.30;2.50;;;;;;;4.28;93.41;97558.36;105153;1262;82713;-56
2023/12/22 01:51:11;;;;;;;11.20;2.40;;;;;;;4.29;93.26;97565.23;105149;1257;72729;-57
2023/12/22 01:53:39;;;;;;;7.90;2.00;;;;;;;4.30;92.44;97557.90;105197;1256;69170;-57
2023/12/22 01:56:08;;;;;;;12.40;2.60;;;;;;;4.31;92.61;97577.00;105102;1262;69141;-56
2023/12/22 01:58:37;;;;;;;8.70;2.30;;;;;;;4.31;91.67;97566.11;105221;1257;75174;-56
2023/12/22 02:01:13;;;;;;;8.10;1.90;;;;;;;4.32;91.35;97578.14;105061;1261;82806;-56
2023/12/22 02:03:42;;;;;;;9.90;1.70;;;;;;;4.34;90.84;97583.05;105144;1261;70876;-56
2023/12/22 02:06:10;;;;;;;5.60;1.40;;;;;;;4.34;90.67;97568.16;105096;1261;69184;-57
2023/12/22 02:08:39;;;;;;;10.70;2.20;;;;;;;4.35;90.52;97561.04;105212;1260;69187;-57
2023/12/22 02:11:07;;;;;;;10.20;1.70;;;;;;;4.33;89.79;97584.34;105168;1262;72129;-57
2023/12/22 02:13:36;;;;;;;9.10;1.70;;;;;;;4.33;88.61;97561.19;105120;1256;82213;-57
2023/12/22 02:16:12;;;;;;;11.80;2.10;;;;;;;4.31;88.83;97550.04;105156;1256;72300;-57
2023/12/22 02:18:43;;;;;;;6.70;1.70;;;;;;;4.28;88.65;97566.14;105092;1257;69190;-57
2023/12/22 02:21:12;;;;;;;7.40;1.60;;;;;;;4.24;88.96;97562.55;105142;1257;69116;-57
2023/12/22 02:23:40;;;;;;;7.00;1.50;;;;;;;4.18;88.83;97558.00;105120;1262;72460;-57
2023/12/22 02:26:21;;;;;;;7.40;1.30;;;;;;;4.14;89.02;97558.95;105135;1261;81721;-56
2023/12/22 02:28:50;;;;;;;9.00;1.60;;;;;;;4.10;88.08;97559.73;105205;1257;70495;-56
2023/12/22 02:31:36;;;;;;;8.20;1.70;;;;;;;4.04;87.53;97559.84;105116;1257;69222;-57
2023/12/22 02:34:08;;;;;;;6.20;1.20;;;;;;;3.98;88.12;97557.23;105140;1257;69197;-55
2023/12/22 02:36:36;;;;;;;7.90;1.60;;;;;;;3.92;88.03;97559.67;105202;1261;73892;-55
2023/12/22 02:39:05;;;;;;;8.00;1.80;;;;;;;3.86;88.04;97550.67;105223;1261;81783;-57
2023/12/22 02:41:34;;;;;;;4.90;1.10;;;;;;;3.81;87.63;97548.86;105170;1257;70534;-57
2023/12/22 02:44:02;;;;;;;5.30;1.80;;;;;;;3.78;87.15;97561.31;105159;1261;69161;-57
2023/12/22 02:46:31;;;;;;;8.00;1.40;;;;;;;3.73;86.86;97557.42;105338;1257;69179;-56
2023/12/22 02:48:59;;;;;;;7.30;1.30;;;;;;;3.68;86.78;97561.98;105204;1256;75025;-57
2023/12/22 02:51:28;;;;;;;6.40;1.50;;;;;;;3.64;87.20;97553.98;105263;1262;81467;-56
2023/12/22 02:53:56;;;;;;;6.20;1.60;;;;;;;3.58;86.80;97567.21;105233;1256;70380;-59
2023/12/22 02:56:24;;;;;;;9.10;2.30;;;;;;;3.53;87.13;97565.41;105118;1261;69160;-56
2023/12/22 02:58:52;;;;;;;10.40;1.50;;;;;;;3.49;87.19;97561.81;105161;1260;69247;-55
2023/12/22 03:01:20;;;;;;;10.10;1.40;;;;;;;3.46;86.91;97567.71;105181;1257;73568;-56
2023/12/22 03:03:49;;;;;;;4.90;1.40;;;;;;;3.43;87.00;97568.04;105130;1256;82715;-56
2023/12/22 03:06:17;;;;;;;4.70;1.30;;;;;;;3.41;86.74;97572.79;105180;1257;72022;-55
2023/12/22 03:08:45;;;;;;;11.90;1.40;;;;;;;3.40;87.08;97575.09;105148;1262;69147;-55
2023/12/22 03:11:13;;;;;;;7.00;1.50;;;;;;;3.39;86.96;97577.05;105156;1260;69128;-56
2023/12/22 03:13:41;;;;;;;7.80;1.30;;;;;;;3.41;86.65;97586.77;105152;1257;75050;-56
2023/12/22 03:16:10;;;;;;;7.60;1.30;;;;;;;3.41;86.56;97587.80;105141;1262;81452;-56
2023/12/22 03:18:39;;;;;;;11.00;1.40;;;;;;;3.42;86.16;97600.38;105239;1257;70631;-56
2023/12/22 03:21:07;;;;;;;7.70;1.30;;;;;;;3.41;86.64;97606.61;105186;1256;69192;-56
2023/12/22 03:23:35;;;;;;;10.20;1.80;;;;;;;3.42;86.30;97604.66;105163;1262;69218;-54
2023/12/22 03:26:04;;;;;;;8.10;1.50;;;;;;;3.43;86.13;97592.54;105139;1256;74519;-56
2023/12/22 03:28:33;;;;;;;7.70;1.40;;;;;;;3.41;86.56;97600.61;105163;1257;81384;-55
2023/12/22 03:31:02;;;;;;;10.70;2.00;;;;;;;3.40;86.30;97596.85;105170;1260;73372;-57
2023/12/22 03:33:31;;;;;;;9.60;1.40;;;;;;;3.37;86.50;97595.45;105182;1257;69087;-57
2023/12/22 03:35:59;;;;;;;10.10;2.00;;;;;;;3.34;86.59;97591.25;105074;1257;69267;-56
2023/12/22 03:38:27;;;;;;;10.20;1.90;;;;;;;3.31;86.70;97591.79;105121;1257;74825;-55
2023/12/22 03:40:55;;;;;;;10.40;2.00;;;;;;;3.28;86.24;97586.05;105110;1262;82090;-57
2023/12/22 03:43:24;;;;;;;8.60;1.30;;;;;;;3.27;86.68;97596.67;105112;1261;71659;-54
2023/12/22 03:45:52;;;;;;;10.10;1.50;;;;;;;3.21;86.47;97597.13;105231;1258;69718;-56
2023/12/22 03:48:20;;;;;;;8.90;1.60;;;;;;;3.18;86.88;97591.95;105141;1256;69173;-56
2023/12/22 03:50:48;;;;;;;6.90;1.60;;;;;;;3.16;86.89;97588.97;105131;1257;74982;-55
2023/12/22 03:53:17;;;;;;;6.70;1.50;;;;;;;3.11;87.32;97583.00;105161;1260;82854;-56
2023/12/22 03:55:45;;;;;;;6.30;1.30;;;;;;;3.07;87.13;97583.55;105203;1256;70150;-55
2023/12/22 03:58:13;;;;;;;9.90;1.60;;;;;;;3.07;86.85;97601.33;105153;1260;69119;-56
2023/12/22 04:00:42;;;;;;;10.80;1.70;;;;;;;3.08;86.19;97607.49;105169;1261;69144;-56
2023/12/22 04:03:10;;;;;;;11.70;1.90;;;;;;;3.10;86.38;97608.77;105226;1256;73850;-55
2023/12/22 04:05:38;;;;;;;11.30;1.80;;;;;;;3.11;86.70;97608.52;105194;1260;81141;-56
2023/12/22 04:08:07;;;;;;;8.80;1.70;;;;;;;3.12;86.52;97609.86;105181;1257;72114;-56
2023/12/22 04:10:35;;;;;;;10.70;1.80;;;;;;;3.14;86.27;97615.27;105126;1256;69164;-55
2023/12/22 04:13:03;;;;;;;5.10;1.50;;;;;;;3.15;85.88;97623.50;105107;1257;69255;-54
2023/12/22 04:15:31;;;;;;;9.00;2.00;;;;;;;3.17;86.11;97621.50;105185;1257;75041;-55
2023/12/22 04:17:59;;;;;;;11.40;2.20;;;;;;;3.17;86.39;97631.33;105315;1260;81650;-55
2023/12/22 04:20:28;;;;;;;7.70;1.50;;;;;;;3.17;86.21;97639.80;105210;1257;71640;-57
2023/12/22 04:22:56;;;;;;;7.90;1.80;;;;;;;3.18;86.26;97629.58;105313;1260;69241;-57
2023/12/22 04:25:25;;;;;;;12.70;2.00;;;;;;;3.20;86.64;97629.48;105239;1260;69159;-57
2023/12/22 04:27:53;;;;;;;11.10;1.80;;;;;;;3.20;86.41;97631.20;105221;1257;73562;-56
2023/12/22 04:30:21;;;;;;;8.70;1.70;;;;;;;3.21;86.47;97624.92;105147;1260;81365;-56
2023/12/22 04:32:49;;;;;;;9.10;2.00;;;;;;;3.22;86.66;97637.48;105128;1257;70453;-56
2023/12/22 04:35:18;;;;;;;7.90;1.70;;;;;;;3.23;86.18;97640.52;105151;1263;69174;-55
2023/12/22 04:37:46;;;;;;;9.00;1.70;;;;;;;3.27;86.52;97638.04;105194;1260;69187;-56
2023/12/22 04:40:14;;;;;;;9.60;1.50;;;;;;;3.27;86.43;97644.11;105200;1258;73708;-56
2023/12/22 04:42:43;;;;;;;7.80;1.90;;;;;;;3.27;86.35;97644.81;105125;1256;79972;-56
2023/12/22 04:45:11;;;;;;;9.00;2.10;;;;;;;3.27;86.33;97642.02;105167;1257;73886;-55
2023/12/22 04:47:39;;;;;;;9.60;2.00;;;;;;;3.28;86.30;97644.77;105175;1262;69175;-55
2023/12/22 04:50:08;;;;;;;11.30;1.60;;;;;;;3.29;86.19;97629.86;105143;1263;69696;-54
2023/12/22 04:52:37;;;;;;;7.70;1.50;;;;;;;3.33;85.90;97620.67;105208;1262;74231;-56
2023/12/22 04:55:05;;;;;;;5.70;2.20;;;;;;;3.36;85.67;97627.27;105111;1262;81694;-55
2023/12/22 04:57:33;;;;;;;9.60;1.70;;;;;;;3.38;85.71;97625.60;105214;1260;71787;-56
2023/12/22 05:00:02;;;;;;;13.00;1.80;;;;;;;3.39;85.55;97623.31;105143;1260;69214;-56
2023/12/22 05:02:30;;;;;;;5.50;1.10;;;;;;;3.38;85.18;97623.70;105213;1261;69160;-56
2023/12/22 05:04:58;;;;;;;8.00;1.40;;;;;;;3.36;85.52;97619.30;105172;1257;73946;-57
2023/12/22 05:07:27;;;;;;;7.50;1.70;;;;;;;3.33;85.54;97630.34;105206;1261;83419;-56
2023/12/22 05:09:55;;;;;;;7.50;1.40;;;;;;;3.29;85.45;97630.02;105182;1257;72688;-56
2023/12/22 05:12:24;;;;;;;6.80;1.60;;;;;;;3.26;85.75;97627.95;105142;1260;69179;-56
2023/12/22 05:14:52;;;;;;;9.60;2.30;;;;;;;3.22;85.60;97623.50;105137;1258;69247;-55
2023/12/22 05:17:20;;;;;;;9.30;1.30;;;;;;;3.19;85.90;97630.55;105181;1262;72738;-55
2023/12/22 05:19:48;;;;;;;9.20;1.40;;;;;;;3.17;85.89;97629.61;105127;1262;82124;-55
2023/12/22 05:22:16;;;;;;;9.70;1.70;;;;;;;3.16;85.83;97625.70;105039;1261;71746;-54
2023/12/22 05:24:44;;;;;;;7.80;1.50;;;;;;;3.14;85.96;97634.42;105086;1260;69231;-56
2023/12/22 05:27:12;;;;;;;7.60;1.50;;;;;;;3.13;85.85;97632.93;105116;1261;69208;-56
2023/12/22 05:29:41;;;;;;;8.70;1.40;;;;;;;3.11;85.89;97634.92;105165;1257;73725;-55
2023/12/22 05:32:09;;;;;;;9.30;1.20;;;;;;;3.11;86.29;97627.16;105152;1262;80279;-56
2023/12/22 05:34:37;;;;;;;9.70;1.50;;;;;;;3.09;86.33;97628.48;105126;1261;71808;-55
2023/12/22 05:37:05;;;;;;;12.00;1.60;;;;;;;3.08;86.02;97628.52;105123;1257;69186;-55
2023/12/22 05:39:34;;;;;;;10.60;2.50;;;;;;;3.10;85.97;97626.00;105208;1260;69205;-56
2023/12/22 05:42:02;;;;;;;8.80;1.60;;;;;;;3.10;85.44;97613.75;105168;1262;74417;-55
2023/12/22 05:44:30;;;;;;;10.00;1.90;;;;;;;3.11;85.83;97614.94;105108;1257;81787;-56
2023/12/22 05:46:58;;;;;;;11.50;1.80;;;;;;;3.07;86.04;97620.64;105103;1262;72184;-55
2023/12/22 05:49:27;;;;;;;10.20;2.00;;;;;;;3.05;85.68;97623.67;105323;1263;69218;-56
2023/12/22 05:51:55;;;;;;;7.90;1.50;;;;;;;3.05;85.77;97623.02;105193;1262;69652;-56
2023/12/22 05:54:25;;;;;;;8.10;1.60;;;;;;;3.02;85.83;97616.41;105332;1260;73697;-55
2023/12/22 05:56:53;;;;;;;7.90;2.00;;;;;;;3.01;85.95;97614.56;105226;1262;81876;-56
2023/12/22 05:59:27;;;;;;;14.10;3.30;;;;;;;2.97;86.12;97616.31;105164;1261;72177;-54
2023/12/22 06:01:56;;;;;;;11.30;2.80;;;;;;;2.96;85.89;97614.30;105151;1262;69132;-54
2023/12/22 06:04:25;;;;;;;6.50;1.50;;;;;;;2.97;86.26;97620.12;105170;1260;69116;-56
2023/12/22 06:06:53;;;;;;;8.00;1.50;;;;;;;2.96;86.51;97626.55;105246;1260;73948;-54
2023/12/22 06:09:22;;;;;;;7.40;2.30;;;;;;;2.95;86.42;97631.46;105172;1263;82751;-54
2023/12/22 06:11:50;;;;;;;8.90;1.40;;;;;;;2.92;86.57;97626.94;105125;1261;72018;-55
2023/12/22 06:14:18;;;;;;;6.20;1.50;;;;;;;2.90;86.36;97623.54;105166;1263;69210;-56
2023/12/22 06:16:46;;;;;;;9.70;1.70;;;;;;;2.92;86.40;97627.27;105152;1260;69196;-55
2023/12/22 06:19:16;;;;;;;6.70;1.50;;;;;;;2.95;86.84;97628.17;105189;1262;74862;-55
2023/12/22 06:21:45;;;;;;;9.50;1.70;;;;;;;2.94;86.73;97629.94;105168;1262;81591;-56
2023/12/22 06:24:13;;;;;;;11.30;2.00;;;;;;;2.92;86.84;97632.27;105104;1257;70557;-55
2023/12/22 06:26:41;;;;;;;8.50;1.40;;;;;;;2.91;87.16;97631.45;105128;1260;69088;-55
2023/12/22 06:29:10;;;;;;;11.70;1.50;;;;;;;2.91;87.29;97633.02;105192;1261;69192;-55
2023/12/22 06:31:38;;;;;;;8.50;1.70;;;;;;;2.89;87.23;97631.17;105237;1260;73766;-56
2023/12/22 06:34:06;;;;;;;7.70;1.50;;;;;;;2.90;87.32;97632.52;105112;1263;82022;-55
2023/12/22 06:36:34;;;;;;;10.70;1.70;;;;;;;2.90;87.27;97641.51;105198;1257;71677;-56
2023/12/22 06:39:03;;;;;;;11.20;1.90;;;;;;;2.92;87.47;97639.70;105100;1261;70521;-55
2023/12/22 06:41:32;;;;;;;6.90;1.50;;;;;;;2.93;87.52;97630.98;105212;1264;69136;-55
2023/12/22 06:44:01;;;;;;;10.40;1.50;;;;;;;2.95;87.16;97620.06;105145;1260;76184;-54
2023/12/22 06:46:30;;;;;;;7.70;1.40;;;;;;;2.95;87.31;97622.80;105175;1260;81929;-56
2023/12/22 06:48:59;;;;;;;4.60;1.20;;;;;;;2.94;87.38;97621.80;105175;1262;71786;-56
2023/12/22 06:51:35;;;;;;;7.90;1.50;;;;;;;2.95;87.43;97634.20;105146;1262;69093;-56
2023/12/22 06:54:04;;;;;;;7.40;1.10;;;;;;;2.97;87.45;97637.36;105118;1258;69212;-56
2023/12/22 06:56:35;;;;;;;6.70;1.60;;;;;;;3.00;87.71;97634.29;105165;1261;72629;-54
2023/12/22 06:59:03;;;;;;;8.00;1.20;;;;;;;3.04;87.48;97627.02;105189;1263;81441;-55
2023/12/22 07:01:34;;;;;;;7.40;1.40;;;;;;;3.06;87.57;97631.92;105228;1261;71849;-56
2023/12/22 07:04:04;;;;;;;4.90;1.10;;;;;;;3.06;87.53;97646.73;105162;1261;69137;-56
2023/12/22 07:06:33;;;;;;;6.00;1.20;;;;;;;3.07;87.86;97641.66;105179;1260;69166;-56
2023/12/22 07:09:11;;;;;;;8.40;1.50;;;;;;;3.03;87.79;97649.64;105167;1260;74095;-56
2023/12/22 07:11:40;;;;;;;3.00;0.60;;;;;;;2.92;88.01;97662.27;105198;1260;82607;-57
2023/12/22 07:14:09;;;;;;;3.90;0.80;;;;;;;2.76;88.31;97669.63;105166;1260;74114;-57
2023/12/22 07:16:39;;;;;;;2.70;0.60;;;;;;;2.56;89.20;97682.48;105168;1260;69117;-58
2023/12/22 07:19:07;;;;;;;2.20;0.40;;;;;;;2.33;89.09;97675.83;105309;1263;69154;-59
2023/12/22 07:21:36;;;;;;;3.00;0.40;;;;;;;1.98;89.45;97691.75;105255;1260;73642;-59
2023/12/22 07:24:05;;;;;;;3.70;0.40;;;;;;;1.64;89.93;97694.33;105302;1261;81860;-62
2023/12/22 07:26:33;;;;;;;3.10;0.70;;;;;;;1.32;90.29;97683.47;105185;1261;71815;-62
2023/12/22 07:29:01;;;;;;;4.30;0.50;;;;;;;1.11;90.90;97672.70;105176;1256;69189;-61
2023/12/22 07:31:30;;;;;;;1.30;0.40;;;;;;;0.98;91.73;97678.58;105128;1262;69148;-60
2023/12/22 07:33:58;;;;;;;2.50;0.80;;;;;;;0.90;92.37;97682.34;105140;1260;73923;-60
2023/12/22 07:36:26;;;;;;;2.00;0.70;;;;;;;0.84;92.85;97685.35;105166;1260;82561;-60
2023/12/22 07:38:57;;;;;;;2.60;0.50;;;;;;;0.79;93.30;97682.59;105117;1262;72394;-60
2023/12/22 07:41:25;;;;;;;2.90;0.70;;;;;;;0.79;93.88;97691.58;105163;1257;69085;-60
2023/12/22 07:43:53;;;;;;;4.20;1.10;;;;;;;0.80;94.67;97697.18;105133;1261;69259;-60
2023/12/22 07:46:22;;;;;;;4.10;0.90;;;;;;;0.83;94.92;97691.58;105194;1258;75591;-60
2023/12/22 07:48:52;;;;;;;3.00;1.00;;;;;;;0.87;95.23;97689.36;105181;1260;82775;-60
2023/12/22 07:51:20;;;;;;;4.60;1.10;;;;;;;0.90;95.43;97691.27;105084;1257;71743;-60
2023/12/22 07:53:48;;;;;;;5.70;1.10;;;;;;;0.93;95.86;97690.45;105157;1260;69209;-60
2023/12/22 07:56:18;;;;;;;4.70;1.20;;;;;;;0.96;96.20;97702.02;105266;1257;69176;-60
2023/12/22 07:58:46;;;;;;;6.00;1.10;;;;;;;1.00;96.80;97694.81;105201;1258;73515;-60
2023/12/22 08:01:17;;;;;;;6.60;2.00;;;;;;;1.05;97.01;97694.77;105176;1263;81971;-59
2023/12/22 08:03:45;;;;;;;8.10;1.40;;;;;;;1.12;97.31;97684.17;105117;1260;71875;-59
2023/12/22 08:06:14;;;;;;;9.10;1.90;;;;;;;1.18;97.80;97686.67;105142;1269;69122;-59
2023/12/22 08:08:43;;;;;;;4.60;1.30;;;;;;;1.25;97.96;97688.41;105121;1260;69188;-58
2023/12/22 08:11:11;;;;;;;8.60;1.70;;;;;;;1.34;98.66;97680.80;105224;1258;74256;-59
2023/12/22 08:13:40;;;;;;;6.70;1.90;;;;;;;1.42;98.91;97682.89;105144;1260;81561;-58
2023/12/22 08:16:08;;;;;;;5.40;1.30;;;;;;;1.49;98.99;97674.68;105186;1270;72216;-58
2023/12/22 08:18:36;;;;;;;9.40;1.30;;;;;;;1.52;99.45;97666.59;105130;1257;69157;-58
2023/12/22 08:21:06;;;;;;;7.00;1.60;;;;;;;1.59;99.35;97665.13;105110;1261;69180;-58
2023/12/22 08:23:48;;;;;;;8.10;1.50;;;;;;;1.65;99.80;97666.75;105157;1261;74033;-58
2023/12/22 08:26:22;;;;;;;6.10;1.20;;;;;;;1.70;99.78;97668.56;105134;1262;82264;-58
2023/12/22 08:28:51;;;;;;;6.40;1.60;;;;;;;1.79;99.96;97662.31;105103;1260;71767;-58
2023/12/22 08:31:19;;;;;;;7.30;1.40;;;;;;;1.86;99.99;97660.75;105114;1261;69305;-58
2023/12/22 08:33:47;;;;;;;7.70;1.40;;;;;;;1.93;100.00;97657.85;105196;1260;69170;-58
2023/12/22 08:36:16;;;;;;;7.20;1.20;;;;;;;2.02;100.00;97679.50;105167;1260;73964;-58
2023/12/22 08:38:44;;;;;;;6.00;1.60;;;;;;;2.15;99.99;97665.27;105125;1257;82044;-58
2023/12/22 08:41:14;;;;;;;4.80;1.20;;;;;;;2.29;99.99;97683.41;105168;1261;73078;-58
2023/12/22 08:43:43;;;;;;;7.70;1.40;;;;;;;2.45;100.00;97682.50;105147;1257;69153;-58
2023/12/22 08:46:12;;;;;;;8.90;1.40;;;;;;;2.58;100.00;97681.38;105213;1260;69301;-58
2023/12/22 08:48:40;;;;;;;7.00;1.10;;;;;;;2.69;99.94;97682.89;105106;1260;75057;-58
2023/12/22 08:51:09;;;;;;;6.60;1.10;;;;;;;2.79;99.77;97678.13;105287;1263;81336;-58
2023/12/22 08:53:38;;;;;;;9.80;1.70;;;;;;;2.84;99.59;97689.74;105108;1258;71957;-58
2023/12/22 08:56:07;;;;;;;5.20;1.10;;;;;;;2.86;99.09;97689.96;105286;1260;69153;-58
2023/12/22 08:58:35;;;;;;;2.90;0.90;;;;;;;2.85;98.71;97700.19;105198;1260;69189;-58
2023/12/22 10:38:46;;;;;;;5.30;0.80;;;;;;;3.27;94.30;97762.67;103121;1285;613074;-57
2023/12/22 10:41:15;;;;;;;5.20;0.90;;;;;;;3.41;92.92;97767.70;104722;1264;88701;-57
2023/12/22 10:43:43;;;;;;;4.50;0.70;;;;;;;3.44;92.43;97777.55;104823;1266;69222;-58
2023/12/22 10:46:13;;;;;;;2.10;0.70;;;;;;;3.46;91.71;97768.79;104779;1264;70739;-58
2023/12/22 10:48:41;;;;;;;6.90;1.20;;;;;;;3.48;91.70;97774.89;104789;1264;80426;-57
2023/12/22 10:51:10;;;;;;;4.00;0.70;;;;;;;3.59;91.28;97778.34;104847;1266;70466;-57
2023/12/22 10:53:42;;;;;;;6.60;1.70;;;;;;;3.66;90.24;97763.98;104844;1264;69163;-57
2023/12/22 10:56:11;;;;;;;4.80;0.90;;;;;;;3.66;89.58;97769.35;104840;1263;69080;-58
2023/12/22 10:58:40;;;;;;;6.00;1.10;;;;;;;3.66;88.66;97772.27;104801;1268;69075;-57
2023/12/22 11:01:09;;;;;;;5.30;1.20;;;;;;;3.65;87.57;97758.33;104753;1268;81494;-57
2023/12/22 11:03:39;;;;;;;5.20;1.50;;;;;;;3.74;88.44;97757.34;104816;1264;71684;-57
2023/12/22 11:06:10;;;;;;;6.60;1.20;;;;;;;3.87;88.18;97762.55;104779;1268;69219;-57
2023/12/22 11:08:40;;;;;;;10.60;1.70;;;;;;;4.01;87.55;97755.08;105020;1259;69092;-57
2023/12/22 11:11:17;;;;;;;9.30;2.10;;;;;;;4.12;86.61;97752.12;104969;1261;71762;-57
2023/12/22 11:13:45;;;;;;;5.10;1.50;;;;;;;4.10;85.93;97746.48;105045;1264;81171;-57
2023/12/22 11:16:14;;;;;;;5.00;1.50;;;;;;;4.13;85.89;97746.50;105029;1261;71511;-57
2023/12/22 11:18:43;;;;;;;5.00;1.20;;;;;;;4.20;85.90;97751.66;105105;1259;69163;-57
2023/12/22 11:21:12;;;;;;;5.60;1.60;;;;;;;4.21;86.37;97757.85;104936;1265;69189;-57
2023/12/22 11:23:42;;;;;;;3.90;1.00;;;;;;;4.18;85.60;97745.71;104995;1260;71128;-56
2023/12/22 11:26:11;;;;;;;6.50;1.40;;;;;;;4.11;85.54;97744.54;104960;1263;81425;-59
2023/12/22 11:28:40;;;;;;;2.20;0.80;;;;;;;4.06;85.44;97750.36;105001;1260;72214;-58
2023/12/22 11:31:10;;;;;;;8.10;1.40;;;;;;;4.03;84.92;97751.55;104998;1264;69218;-57
2023/12/22 11:33:43;;;;;;;5.30;1.60;;;;;;;4.00;84.68;97747.73;104991;1265;69206;-58
2023/12/22 11:36:31;;;;;;;6.90;1.70;;;;;;;4.01;84.04;97739.54;104967;1264;71505;-58
2023/12/22 11:39:00;;;;;;;5.30;1.20;;;;;;;4.00;83.38;97755.80;105072;1259;81553;-57
2023/12/22 11:41:31;;;;;;;6.20;1.20;;;;;;;4.01;82.72;97760.27;105079;1264;72997;-57
2023/12/22 11:43:59;;;;;;;8.10;2.20;;;;;;;3.99;82.70;97752.77;105033;1260;69212;-57
2023/12/22 11:46:29;;;;;;;9.30;1.70;;;;;;;4.00;83.07;97756.20;104966;1260;69181;-57
2023/12/22 11:48:58;;;;;;;5.80;1.30;;;;;;;3.98;82.40;97756.42;105038;1260;71422;-57
2023/12/22 11:51:31;;;;;;;11.50;2.20;;;;;;;3.98;82.63;97764.23;105027;1264;81743;-57
2023/12/22 11:54:01;;;;;;;14.20;4.20;;;;;;;4.09;81.60;97748.83;105041;1260;70660;-57
2023/12/22 11:56:30;;;;;;;20.60;6.60;;;;;;;4.09;80.82;97746.00;105063;1260;69227;-58
2023/12/22 11:59:00;;;;;;;8.20;2.50;;;;;;;4.10;80.33;97748.73;105098;1264;69249;-57
2023/12/22 12:01:31;;;;;;;7.90;2.50;;;;;;;4.11;80.84;97754.91;105015;1259;71508;-57
2023/12/22 12:04:03;;;;;;;9.00;1.80;;;;;;;4.12;81.32;97751.90;105039;1263;81484;-57
2023/12/22 12:06:36;;;;;;;8.60;1.60;;;;;;;4.15;80.66;97747.42;104977;1261;71679;-57
2023/12/22 12:09:08;;;;;;;5.20;1.70;;;;;;;4.18;80.66;97754.02;105036;1260;69150;-57
2023/12/22 12:11:52;;;;;;;6.90;2.10;;;;;;;4.15;80.17;97752.12;105081;1263;69205;-57
2023/12/22 12:14:29;;;;;;;8.20;1.90;;;;;;;4.11;79.17;97748.70;105054;1263;69804;-57
2023/12/22 12:17:15;;;;;;;8.60;1.70;;;;;;;4.15;78.85;97734.48;104891;1266;81438;-57
2023/12/22 12:19:44;;;;;;;9.10;2.00;;;;;;;4.26;77.89;97747.39;105068;1259;72318;-57
2023/12/22 12:22:13;;;;;;;8.00;1.60;;;;;;;4.34;77.96;97737.43;104869;1261;69140;-57
2023/12/22 12:24:42;;;;;;;9.20;1.70;;;;;;;4.39;77.48;97743.00;104935;1261;69173;-57
2023/12/22 12:27:10;;;;;;;9.30;1.50;;;;;;;4.44;77.72;97741.20;105079;1261;72272;-58
2023/12/22 12:29:39;;;;;;;7.60;2.10;;;;;;;4.47;77.87;97743.98;104986;1260;81390;-57
2023/12/22 12:32:08;;;;;;;7.50;1.50;;;;;;;4.50;76.32;97748.66;105023;1261;70953;-57
2023/12/22 12:34:37;;;;;;;9.50;1.90;;;;;;;4.54;76.16;97750.32;105037;1259;69099;-57
2023/12/22 12:37:06;;;;;;;6.00;1.70;;;;;;;4.58;75.60;97751.16;105052;1263;69197;-57
2023/12/22 12:39:35;;;;;;;8.50;2.00;;;;;;;4.65;76.03;97738.16;105045;1261;72544;-57
2023/12/22 12:42:07;;;;;;;6.20;1.90;;;;;;;4.67;75.11;97746.15;105041;1261;81754;-57
2023/12/22 12:44:37;;;;;;;11.80;2.20;;;;;;;4.77;74.92;97753.27;105413;1254;72981;-57
2023/12/22 12:47:13;;;;;;;7.90;1.60;;;;;;;4.76;74.20;97752.92;105212;1257;69131;-58
2023/12/22 12:49:41;;;;;;;8.90;2.30;;;;;;;4.76;74.27;97761.80;105377;1256;69155;-58
2023/12/22 12:52:13;;;;;;;9.80;2.40;;;;;;;4.70;75.16;97760.15;105356;1259;71079;-57
2023/12/22 12:54:42;;;;;;;11.80;2.40;;;;;;;4.62;74.67;97757.48;105338;1260;81953;-58
2023/12/22 12:57:15;;;;;;;10.60;2.60;;;;;;;4.53;73.48;97763.38;105380;1259;72026;-59
2023/12/22 12:59:47;;;;;;;16.20;2.70;;;;;;;4.50;73.38;97754.54;105488;1254;69141;-58
2023/12/22 13:02:17;;;;;;;12.00;2.60;;;;;;;4.48;72.83;97767.44;105458;1259;69139;-58
2023/12/22 13:04:46;;;;;;;9.90;2.30;;;;;;;4.44;72.82;97768.15;105436;1254;71630;-58
2023/12/22 13:07:23;;;;;;;8.40;2.10;;;;;;;4.41;73.21;97783.72;105416;1254;82007;-58
2023/12/22 13:09:54;;;;;;;11.20;2.40;;;;;;;4.38;72.11;97775.05;105140;1254;71640;-58
2023/12/22 13:12:24;;;;;;;7.10;1.90;;;;;;;4.37;72.85;97781.20;105431;1255;69206;-58
2023/12/22 13:14:52;;;;;;;9.80;1.80;;;;;;;4.36;73.12;97785.20;105393;1259;69194;-58
2023/12/22 13:17:21;;;;;;;10.30;1.80;;;;;;;4.38;72.44;97785.95;105365;1254;71388;-58
2023/12/22 13:19:50;;;;;;;6.30;1.40;;;;;;;4.40;71.71;97776.69;105400;1256;82194;-58